Decoded Metar for VVCR (CAMRANH in VIET NAM) (IATA:N/A) | Meteo·Mobile Aviation Weather
aviador You're here:

VVCR Decoded Metar

CAMRANH in VIET NAM
Report Time2019-10-22 13:30:00
UTC Time2019-10-22 13:42:43
Flight Rules vfr VFR
Wind060° at 09 kt
W.Decomp.*RWY 02: 6.9 kt HW 5.8 kt RCW
Visibility9999 m
Phenomena:N/A
Clouds:Few 015 Hf
Expected CloudBase > 2,000 ft AGL from Temp-Dew spread
CeilingNone
Temp29°C (ISA +14)
Dew Point24°C (74% RH)
Heat Index33.5°C
QNH1011 hPa
Density Alt2,113 ft
Elevation39 ft
Report Wrong Elevation
Raw Report
METAR VVCR 221330Z 06009KT 9999 FEW015 29/24 Q1011 NOSIG=

Extra information for VVCR:More info

Metar Taf Metar & Taf Last 4 Metars F.Rules Stats Wind Profile Meteogram Temp Stats Airport Information Weather charts Add Link Nearby VenuesMetar ALERT Operation Metar Decoded Social comments